Time;durP1;ratioP1;P1;durP2;ratioP2;P2;SDS_P1;SDS_P2;PMS_P1;PMS_P2;Temp;Humidity;BMP_temperature;BMP_pressure;BME280_temperature;BME280_humidity;BME280_pressure;Samples;Min_cycle;Max_cycle;Signal;HPM_P1;HPM_P2
2021/09/05 07:39:56;;;;;;;12.10;8.30;;;17.10;98.30;;;;;;3985093;29;20558;-83
2021/09/05 07:42:13;;;;;;;12.10;6.70;;;17.30;98.30;;;;;;4020315;29;20949;-84
2021/09/05 07:44:19;;;;;;;11.77;7.30;;;17.10;98.30;;;;;;4025668;29;20500;-84
2021/09/05 07:46:24;;;;;;;9.80;5.50;;;17.00;98.30;;;;;;4046393;29;20807;-83
2021/09/05 07:48:29;;;;;;;8.37;5.60;;;17.00;98.30;;;;;;4021804;29;20939;-83
2021/09/05 07:50:33;;;;;;;7.60;5.30;;;17.20;98.30;;;;;;4039378;29;20471;-83
2021/09/05 07:52:36;;;;;;;5.70;4.73;;;17.30;98.30;;;;;;4042275;29;20508;-82
2021/09/05 07:54:40;;;;;;;12.13;7.00;;;17.40;98.30;;;;;;4042252;29;20844;-83
2021/09/05 07:56:43;;;;;;;7.70;5.50;;;17.60;98.30;;;;;;4041991;29;20476;-83
2021/09/05 07:58:48;;;;;;;11.03;7.57;;;17.80;98.30;;;;;;4043708;29;20746;-83
2021/09/05 08:00:51;;;;;;;7.73;6.03;;;17.90;98.30;;;;;;4041574;29;20831;-83
2021/09/05 08:02:55;;;;;;;5.67;4.80;;;18.10;98.30;;;;;;4043634;29;20504;-83
2021/09/05 08:04:58;;;;;;;7.63;4.83;;;18.10;98.30;;;;;;4043788;29;20623;-84
2021/09/05 08:07:01;;;;;;;6.57;4.90;;;18.20;98.30;;;;;;4043428;29;20587;-84
2021/09/05 08:09:04;;;;;;;6.77;5.33;;;18.30;98.30;;;;;;4042803;29;20488;-83
2021/09/05 08:11:07;;;;;;;7.33;5.13;;;18.50;98.30;;;;;;4043749;29;20480;-82
2021/09/05 08:13:10;;;;;;;8.60;4.67;;;18.60;98.30;;;;;;4040450;29;20867;-83
2021/09/05 08:15:15;;;;;;;6.07;4.80;;;18.80;98.30;;;;;;4041783;29;20477;-84
2021/09/05 08:17:18;;;;;;;5.83;5.23;;;18.70;98.30;;;;;;4043061;29;21445;-83
2021/09/05 08:19:21;;;;;;;8.10;5.03;;;18.80;98.30;;;;;;4042605;29;20480;-84
2021/09/05 08:21:24;;;;;;;6.13;5.20;;;18.90;98.30;;;;;;4042533;29;20473;-85
2021/09/05 08:23:27;;;;;;;8.60;4.70;;;18.80;98.30;;;;;;4041536;29;20888;-85
2021/09/05 08:25:30;;;;;;;7.10;5.30;;;18.60;98.30;;;;;;4042614;29;20603;-85
2021/09/05 08:27:33;;;;;;;5.23;4.63;;;18.60;98.30;;;;;;4042564;29;20473;-84
2021/09/05 08:29:37;;;;;;;7.53;5.07;;;18.90;98.30;;;;;;4042948;29;20472;-85
2021/09/05 08:31:41;;;;;;;7.63;5.37;;;19.20;98.30;;;;;;4043308;29;20565;-85
2021/09/05 08:33:45;;;;;;;6.33;5.20;;;19.40;98.30;;;;;;4043340;29;20571;-85
2021/09/05 08:35:48;;;;;;;7.33;5.57;;;19.40;98.30;;;;;;4044209;29;20484;-85
2021/09/05 08:37:53;;;;;;;6.47;4.80;;;19.40;98.30;;;;;;4042813;29;20473;-85
2021/09/05 08:39:57;;;;;;;5.70;4.97;;;19.30;98.30;;;;;;4042493;29;20501;-85
2021/09/05 08:42:01;;;;;;;6.30;4.90;;;19.10;98.30;;;;;;4043710;29;20511;-85
2021/09/05 08:44:04;;;;;;;5.93;5.33;;;19.20;98.30;;;;;;4040720;29;20540;-85
2021/09/05 08:46:08;;;;;;;6.27;5.37;;;19.00;98.30;;;;;;4042690;29;20854;-85
2021/09/05 08:48:14;;;;;;;6.13;4.90;;;18.90;98.30;;;;;;4042363;29;20473;-85
2021/09/05 08:50:17;;;;;;;6.10;5.10;;;18.90;98.30;;;;;;4041299;29;20473;-84
2021/09/05 08:52:20;;;;;;;8.20;7.20;;;19.30;98.30;;;;;;4041642;29;20541;-84
2021/09/05 08:54:24;;;;;;;9.70;7.90;;;19.60;98.30;;;;;;4041831;29;20469;-86
2021/09/05 08:56:29;;;;;;;19.10;14.87;;;19.70;98.30;;;;;;4042022;29;20549;-85
2021/09/05 08:58:34;;;;;;;12.80;9.97;;;19.80;98.30;;;;;;4043100;29;20849;-85
2021/09/05 09:00:37;;;;;;;9.53;6.23;;;19.90;98.30;;;;;;4041964;29;20518;-85
2021/09/05 09:02:45;;;;;;;8.27;6.40;;;19.90;98.30;;;;;;4040665;29;20843;-84
2021/09/05 09:04:54;;;;;;;7.70;5.10;;;20.00;98.30;;;;;;4040986;29;20480;-85
2021/09/05 09:07:05;;;;;;;6.87;6.17;;;20.00;98.30;;;;;;4038704;29;20479;-85
2021/09/05 09:09:09;;;;;;;11.10;6.07;;;20.20;98.20;;;;;;4040498;29;20476;-86
2021/09/05 09:11:13;;;;;;;7.00;5.80;;;20.20;98.10;;;;;;4041956;29;20477;-86
2021/09/05 09:13:29;;;;;;;11.30;8.10;;;20.40;97.90;;;;;;4042071;29;20499;-85
2021/09/05 09:15:33;;;;;;;14.17;11.00;;;20.40;97.50;;;;;;4041494;29;20501;-85
2021/09/05 09:17:38;;;;;;;19.20;14.80;;;20.40;97.10;;;;;;4036542;29;20508;-86
2021/09/05 09:19:44;;;;;;;8.77;7.60;;;20.50;97.10;;;;;;4039007;29;20493;-85
2021/09/05 09:21:49;;;;;;;7.03;5.70;;;20.60;96.70;;;;;;4035385;29;20469;-86
2021/09/05 09:23:52;;;;;;;7.60;5.97;;;20.70;95.90;;;;;;4033540;29;20568;-85
2021/09/05 09:25:58;;;;;;;6.27;4.97;;;20.90;96.20;;;;;;4038705;29;20473;-85
2021/09/05 09:28:02;;;;;;;7.80;5.97;;;21.00;95.80;;;;;;4034944;29;20467;-85
2021/09/05 09:30:17;;;;;;;8.47;5.77;;;21.00;94.40;;;;;;4043882;29;20472;-85
2021/09/05 09:32:23;;;;;;;9.87;5.80;;;20.80;96.50;;;;;;4034047;29;20575;-85
2021/09/05 09:34:28;;;;;;;6.20;5.60;;;21.10;96.00;;;;;;4041751;29;20475;-86
2021/09/05 09:36:31;;;;;;;6.30;5.00;;;21.10;95.40;;;;;;4038948;29;20512;-86
2021/09/05 09:38:36;;;;;;;6.77;5.33;;;21.50;95.10;;;;;;4050315;29;20470;-85
2021/09/05 09:40:39;;;;;;;5.67;4.90;;;21.60;94.70;;;;;;4038690;29;20493;-85
2021/09/05 09:42:42;;;;;;;7.43;5.53;;;21.80;95.20;;;;;;4042636;29;20571;-85
2021/09/05 09:44:55;;;;;;;5.90;5.30;;;22.00;94.40;;;;;;4046878;29;20524;-85
2021/09/05 09:47:10;;;;;;;6.53;5.60;;;22.00;93.20;;;;;;4038695;29;20479;-85
2021/09/05 09:49:14;;;;;;;7.03;6.33;;;22.10;93.10;;;;;;4045631;29;20483;-85
2021/09/05 09:51:18;;;;;;;6.70;6.00;;;22.20;92.90;;;;;;4045141;29;20499;-85
2021/09/05 09:53:25;;;;;;;6.97;5.67;;;22.40;92.50;;;;;;4046510;29;21214;-84
2021/09/05 09:55:29;;;;;;;6.20;5.20;;;22.40;92.40;;;;;;4040708;29;21029;-85
2021/09/05 09:57:32;;;;;;;7.37;5.43;;;22.60;92.60;;;;;;4047485;29;20556;-84
2021/09/05 09:59:35;;;;;;;7.13;6.43;;;22.40;91.80;;;;;;4048134;29;21457;-83
2021/09/05 10:01:39;;;;;;;6.63;5.30;;;22.20;91.80;;;;;;4044429;29;20564;-82
2021/09/05 10:03:44;;;;;;;17.13;15.33;;;22.00;92.00;;;;;;4043257;29;20553;-83
2021/09/05 10:05:47;;;;;;;32.33;27.03;;;21.90;92.60;;;;;;4033252;29;20484;-82
2021/09/05 10:07:52;;;;;;;19.00;13.63;;;22.30;93.00;;;;;;4044550;29;20472;-82
2021/09/05 10:09:59;;;;;;;15.03;12.00;;;22.30;91.90;;;;;;4045160;29;20503;-83
2021/09/05 10:12:12;;;;;;;10.10;8.40;;;22.40;91.80;;;;;;4046469;29;20472;-83
2021/09/05 10:14:16;;;;;;;8.80;6.30;;;22.70;91.20;;;;;;4040261;29;20580;-82
2021/09/05 10:16:19;;;;;;;8.87;7.13;;;22.80;90.40;;;;;;4046385;29;20492;-82
2021/09/05 10:18:23;;;;;;;9.47;7.00;;;23.00;90.90;;;;;;4047134;29;20556;-82
2021/09/05 10:20:28;;;;;;;7.60;6.73;;;23.00;89.70;;;;;;4044866;29;20496;-82
2021/09/05 10:22:32;;;;;;;11.03;6.43;;;23.00;90.20;;;;;;4048713;29;20510;-82
2021/09/05 10:24:47;;;;;;;9.07;6.93;;;22.80;90.40;;;;;;4049741;29;20495;-81
2021/09/05 10:27:03;;;;;;;9.10;6.70;;;23.00;90.50;;;;;;4048092;29;20496;-82
2021/09/05 10:29:17;;;;;;;7.27;6.37;;;22.70;90.40;;;;;;4048183;29;20557;-82
2021/09/05 10:31:25;;;;;;;61.77;52.43;;;23.20;90.60;;;;;;4041856;29;20477;-82
2021/09/05 10:33:38;;;;;;;62.30;51.33;;;23.60;89.90;;;;;;4049401;29;20530;-81
2021/09/05 10:35:50;;;;;;;26.77;21.97;;;23.90;89.50;;;;;;4051942;29;20515;-82
2021/09/05 10:38:31;;;;;;;9.53;6.93;;;24.00;88.30;;;;;;4049674;29;20520;-82
2021/09/05 10:40:45;;;;;;;7.20;6.00;;;23.80;88.30;;;;;;4042203;29;20480;-82
2021/09/05 10:42:55;;;;;;;8.27;7.43;;;24.10;88.10;;;;;;4046171;29;20556;-83
2021/09/05 10:45:08;;;;;;;7.30;6.50;;;24.30;88.30;;;;;;4047955;29;20494;-82
2021/09/05 10:47:43;;;;;;;8.23;5.83;;;24.90;87.20;;;;;;4039868;29;20508;-82
2021/09/05 10:49:49;;;;;;;7.37;6.43;;;25.20;86.20;;;;;;4045032;29;20472;-83
2021/09/05 10:51:54;;;;;;;7.47;6.67;;;24.80;85.10;;;;;;4039503;29;20473;-82
2021/09/05 16:16:58;;;;;;;19.13;15.43;;;22.00;98.10;;;;;;4088629;29;20478;-85
2021/09/05 16:19:49;;;;;;;19.87;15.10;;;21.70;98.30;;;;;;4087413;29;20939;-85
2021/09/05 16:58:57;;;;;;;21.77;15.83;;;20.50;98.30;;;;;;4073650;29;20484;-83
2021/09/05 17:13:14;;;;;;;23.67;17.50;;;20.30;98.30;;;;;;4044606;29;20951;-82
2021/09/05 17:18:42;;;;;;;21.70;16.80;;;20.00;98.30;;;;;;4066614;29;20463;-82
2021/09/05 17:20:50;;;;;;;26.27;17.73;;;19.90;98.30;;;;;;4065114;29;21653;-84
2021/09/05 17:22:53;;;;;;;27.13;18.30;;;19.90;98.30;;;;;;4063492;29;20538;-84
2021/09/05 17:24:56;;;;;;;23.70;18.93;;;20.00;98.30;;;;;;4065711;29;20522;-84
2021/09/05 17:27:01;;;;;;;23.73;16.87;;;19.90;98.30;;;;;;4068036;29;20557;-84
2021/09/05 17:29:04;;;;;;;25.53;19.90;;;19.90;98.30;;;;;;4064308;29;20574;-84
2021/09/05 17:31:10;;;;;;;26.77;19.47;;;20.00;98.30;;;;;;4064657;29;20475;-83
2021/09/05 17:33:13;;;;;;;26.43;16.93;;;19.80;98.30;;;;;;4055470;29;20500;-84
2021/09/05 17:35:23;;;;;;;23.10;17.43;;;19.70;98.30;;;;;;4062261;29;20487;-85
2021/09/05 17:37:36;;;;;;;25.87;18.07;;;19.70;98.30;;;;;;4058862;29;20472;-84
2021/09/05 17:39:46;;;;;;;28.00;22.20;;;19.70;98.30;;;;;;4051464;29;20507;-85
2021/09/05 17:41:50;;;;;;;23.00;17.17;;;19.80;98.30;;;;;;4062258;29;20966;-83
2021/09/05 17:43:53;;;;;;;30.83;19.60;;;19.60;98.30;;;;;;4060402;29;20509;-83
2021/09/05 17:45:56;;;;;;;24.70;19.03;;;19.60;98.30;;;;;;4063603;29;20539;-85
2021/09/05 17:47:59;;;;;;;24.90;18.10;;;19.60;98.30;;;;;;4057657;29;20480;-84
2021/09/05 17:50:02;;;;;;;23.90;18.43;;;19.70;98.30;;;;;;4057718;29;20513;-83
2021/09/05 17:52:07;;;;;;;25.30;19.50;;;19.70;98.30;;;;;;4058669;29;20476;-83
2021/09/05 17:54:10;;;;;;;21.87;18.20;;;19.60;98.30;;;;;;4051110;29;20460;-84
2021/09/05 17:56:13;;;;;;;29.63;19.37;;;19.60;98.30;;;;;;4059333;29;20494;-84
2021/09/05 17:58:16;;;;;;;27.33;19.20;;;19.60;98.30;;;;;;4062732;29;20484;-84
2021/09/05 18:00:19;;;;;;;23.90;18.10;;;19.70;98.30;;;;;;4062083;29;20481;-83
2021/09/05 18:02:22;;;;;;;25.60;19.07;;;19.80;98.30;;;;;;4053960;29;21119;-84
2021/09/05 18:04:29;;;;;;;25.10;18.57;;;19.80;98.30;;;;;;4059160;29;20475;-83
2021/09/05 18:06:33;;;;;;;25.70;19.80;;;19.80;98.30;;;;;;4061319;29;20535;-84
2021/09/05 18:08:37;;;;;;;29.77;19.93;;;20.00;98.30;;;;;;4059528;29;20541;-84
2021/09/05 18:10:41;;;;;;;25.90;20.20;;;20.00;98.30;;;;;;4061455;29;20476;-83
2021/09/05 18:12:44;;;;;;;24.70;17.30;;;20.00;98.30;;;;;;4052232;29;20475;-83
2021/09/05 18:14:47;;;;;;;33.60;23.77;;;19.90;98.30;;;;;;4056887;29;20567;-84
2021/09/05 18:16:50;;;;;;;42.13;32.40;;;19.90;98.30;;;;;;4059003;29;20962;-85
2021/09/05 18:18:53;;;;;;;60.40;42.33;;;20.00;98.30;;;;;;4061398;29;20508;-83
2021/09/05 18:20:56;;;;;;;46.23;33.30;;;20.00;98.30;;;;;;4056884;29;21014;-85
2021/09/05 18:22:59;;;;;;;48.60;37.20;;;20.10;98.30;;;;;;4060391;29;20472;-84
2021/09/05 18:25:04;;;;;;;40.30;30.87;;;20.20;98.30;;;;;;4062656;29;20499;-84
2021/09/05 18:27:07;;;;;;;36.83;27.27;;;20.20;98.30;;;;;;4060673;29;20468;-83
2021/09/05 18:29:10;;;;;;;31.87;22.83;;;20.20;98.30;;;;;;4064483;29;20579;-84
2021/09/05 18:31:13;;;;;;;29.50;22.20;;;20.20;98.30;;;;;;4060886;29;20477;-84
2021/09/05 18:33:16;;;;;;;26.60;20.83;;;20.20;98.30;;;;;;4063661;29;20526;-84
2021/09/05 18:35:20;;;;;;;27.17;20.37;;;20.10;98.30;;;;;;4061806;29;20495;-84
2021/09/05 18:37:23;;;;;;;26.97;19.23;;;20.10;98.30;;;;;;4063485;29;20571;-83
2021/09/05 18:39:26;;;;;;;24.37;17.97;;;20.00;98.30;;;;;;4063463;29;20472;-84
2021/09/05 18:41:30;;;;;;;26.33;19.37;;;19.90;98.30;;;;;;4060521;29;20982;-83
2021/09/05 18:43:33;;;;;;;23.37;17.67;;;20.00;98.30;;;;;;4059712;29;20480;-81
2021/09/05 18:45:36;;;;;;;25.73;18.90;;;19.90;98.30;;;;;;4058942;29;20570;-84
2021/09/05 18:47:39;;;;;;;22.80;17.90;;;19.90;98.30;;;;;;4063985;29;20468;-82
2021/09/05 18:49:42;;;;;;;24.90;17.87;;;19.90;98.30;;;;;;4060978;29;20471;-82
2021/09/05 18:51:46;;;;;;;27.10;19.00;;;19.90;98.30;;;;;;4062765;29;20479;-83
2021/09/05 18:53:49;;;;;;;26.27;18.17;;;19.80;98.30;;;;;;4063444;29;20511;-83
2021/09/05 18:55:55;;;;;;;23.57;17.83;;;19.60;98.30;;;;;;4065576;29;20523;-82
2021/09/05 18:58:00;;;;;;;22.40;17.57;;;19.60;98.30;;;;;;4062888;29;20592;-82
2021/09/05 19:00:03;;;;;;;24.77;17.97;;;19.60;98.30;;;;;;4059905;29;20480;-83
2021/09/05 19:02:07;;;;;;;21.97;17.53;;;19.60;98.30;;;;;;4063539;29;20475;-83
2021/09/05 19:04:11;;;;;;;28.27;18.90;;;19.50;98.30;;;;;;4066023;29;20594;-84
2021/09/05 19:06:14;;;;;;;23.07;17.37;;;19.60;98.30;;;;;;4061556;29;20495;-84
2021/09/05 19:08:17;;;;;;;25.43;16.60;;;19.50;98.30;;;;;;4066732;29;20480;-83
2021/09/05 19:10:19;;;;;;;25.40;17.77;;;19.50;98.30;;;;;;4069135;29;20494;-83
2021/09/05 19:12:22;;;;;;;21.87;15.90;;;19.40;98.30;;;;;;4065955;29;20476;-82
2021/09/05 19:14:27;;;;;;;21.33;15.90;;;19.30;98.30;;;;;;4058692;29;20479;-82
2021/09/05 19:16:29;;;;;;;23.37;15.37;;;19.20;98.30;;;;;;4063486;29;20600;-82
2021/09/05 19:18:32;;;;;;;20.60;15.97;;;19.20;98.30;;;;;;4062636;29;20483;-83
2021/09/05 19:20:35;;;;;;;20.80;16.97;;;19.10;98.30;;;;;;4062133;29;20480;-82
2021/09/05 19:22:38;;;;;;;21.23;15.10;;;19.10;98.30;;;;;;4061016;29;20475;-83
2021/09/05 19:24:41;;;;;;;22.30;14.83;;;19.10;98.30;;;;;;4069563;29;20468;-82
2021/09/05 19:26:44;;;;;;;23.27;16.77;;;19.10;98.30;;;;;;4076361;29;20498;-83
2021/09/05 19:28:52;;;;;;;24.13;15.50;;;19.20;98.30;;;;;;4078881;29;20484;-84
2021/09/05 19:30:56;;;;;;;19.63;14.97;;;19.20;98.30;;;;;;4078846;29;20514;-83
2021/09/05 19:32:59;;;;;;;21.93;15.70;;;19.10;98.30;;;;;;4071753;29;20511;-84
2021/09/05 19:35:02;;;;;;;20.80;14.30;;;18.80;98.30;;;;;;4076664;29;20482;-84
2021/09/05 19:37:05;;;;;;;20.37;14.30;;;18.70;98.30;;;;;;4072534;29;20461;-84
2021/09/05 19:39:08;;;;;;;35.70;25.50;;;18.80;98.30;;;;;;4056312;29;20511;-84
2021/09/05 19:41:12;;;;;;;39.30;25.70;;;18.70;98.30;;;;;;4054774;29;20475;-84
2021/09/05 19:43:15;;;;;;;20.73;15.23;;;18.70;98.30;;;;;;4053856;29;20555;-83
2021/09/05 19:45:18;;;;;;;16.47;13.23;;;18.50;98.30;;;;;;4055632;29;20587;-84
2021/09/05 19:47:22;;;;;;;15.77;13.50;;;18.50;98.30;;;;;;4068611;29;20534;-83
2021/09/05 19:49:25;;;;;;;16.67;12.60;;;18.50;98.30;;;;;;4056093;29;20466;-84
2021/09/05 19:51:28;;;;;;;19.87;14.80;;;18.30;98.30;;;;;;4067947;29;20493;-84
2021/09/05 19:53:32;;;;;;;15.13;12.50;;;18.30;98.30;;;;;;4063138;29;20475;-84
2021/09/05 19:55:35;;;;;;;19.80;12.50;;;18.20;98.30;;;;;;4062098;29;20486;-85
2021/09/05 19:57:38;;;;;;;15.67;12.37;;;18.20;98.30;;;;;;4061317;29;20476;-85
2021/09/05 19:59:41;;;;;;;19.27;13.60;;;18.30;98.30;;;;;;4061360;29;20477;-84
2021/09/05 20:01:44;;;;;;;14.97;12.13;;;18.30;98.30;;;;;;4066154;29;20567;-84
2021/09/05 20:03:49;;;;;;;15.93;11.93;;;18.30;98.30;;;;;;4064214;29;20521;-84
2021/09/05 20:05:52;;;;;;;17.67;13.03;;;18.40;98.30;;;;;;4062581;29;20583;-84
2021/09/05 20:07:55;;;;;;;17.93;12.33;;;18.40;98.30;;;;;;4065239;29;20482;-84
2021/09/05 20:10:12;;;;;;;16.93;12.17;;;18.40;98.30;;;;;;4063060;29;20483;-84
2021/09/05 20:12:19;;;;;;;18.10;12.77;;;18.40;98.30;;;;;;4067147;29;20513;-84
2021/09/05 20:14:21;;;;;;;16.73;12.40;;;18.50;98.30;;;;;;4062385;29;20476;-83
2021/09/05 20:16:26;;;;;;;17.73;13.20;;;18.40;98.30;;;;;;4064530;29;20479;-83
2021/09/05 20:18:29;;;;;;;18.00;11.63;;;18.30;98.30;;;;;;4063755;29;20479;-84
2021/09/05 20:20:34;;;;;;;18.00;12.63;;;18.20;98.30;;;;;;4064810;29;20480;-83
2021/09/05 20:22:37;;;;;;;17.40;12.03;;;18.20;98.30;;;;;;4060886;29;20999;-83
2021/09/05 20:24:40;;;;;;;19.43;11.87;;;18.10;98.30;;;;;;4065756;29;20474;-84
2021/09/05 20:26:43;;;;;;;15.83;12.13;;;18.00;98.30;;;;;;4061425;29;20495;-83
2021/09/05 20:28:46;;;;;;;13.43;11.47;;;17.90;98.30;;;;;;4063855;29;20854;-81
2021/09/05 20:30:49;;;;;;;21.77;12.40;;;17.80;98.30;;;;;;4059954;29;20486;-83
2021/09/05 20:32:52;;;;;;;23.03;12.33;;;17.90;98.30;;;;;;4055105;29;20867;-83
2021/09/05 20:34:57;;;;;;;16.43;12.93;;;17.90;98.30;;;;;;4055027;29;20464;-82
2021/09/05 20:37:01;;;;;;;16.13;10.70;;;18.00;98.30;;;;;;4051662;29;20955;-82
2021/09/05 20:39:04;;;;;;;18.73;11.37;;;18.00;98.30;;;;;;4058015;29;21424;-83
2021/09/05 20:41:07;;;;;;;13.07;11.07;;;18.00;98.30;;;;;;4063274;29;20467;-83
2021/09/05 20:43:10;;;;;;;15.70;11.93;;;18.00;98.30;;;;;;4063305;29;20462;-83
2021/09/05 20:45:13;;;;;;;16.83;11.93;;;17.90;98.30;;;;;;4065838;29;20503;-83
2021/09/05 20:47:18;;;;;;;15.23;11.30;;;17.80;98.30;;;;;;4056672;29;20502;-82
2021/09/05 20:49:21;;;;;;;13.67;10.80;;;17.70;98.30;;;;;;4057559;29;20486;-82
2021/09/05 20:51:28;;;;;;;23.03;13.43;;;17.60;98.30;;;;;;4062146;29;20887;-82
2021/09/05 20:53:34;;;;;;;20.83;11.77;;;17.60;98.30;;;;;;4061173;29;20478;-82
2021/09/05 20:55:37;;;;;;;18.73;11.27;;;17.50;98.30;;;;;;4057074;29;20511;-82
2021/09/05 20:57:53;;;;;;;17.80;11.60;;;17.60;98.30;;;;;;4062638;29;20475;-83
2021/09/05 20:59:56;;;;;;;17.73;11.80;;;17.50;98.30;;;;;;4057759;29;20970;-83
2021/09/05 21:01:59;;;;;;;16.90;11.53;;;17.40;98.30;;;;;;4063748;29;20483;-83
2021/09/05 21:04:03;;;;;;;17.97;12.27;;;17.30;98.30;;;;;;4062054;29;20498;-83
2021/09/05 21:06:06;;;;;;;14.97;12.50;;;17.30;98.30;;;;;;4066813;29;20502;-83
2021/09/05 21:08:09;;;;;;;17.00;12.17;;;17.40;98.30;;;;;;4046634;29;20509;-83
2021/09/05 21:10:13;;;;;;;16.97;11.80;;;17.30;98.30;;;;;;4056765;29;20479;-83
2021/09/05 21:12:16;;;;;;;15.87;12.30;;;17.30;98.30;;;;;;4063657;29;20474;-83
2021/09/05 21:14:19;;;;;;;16.33;11.33;;;17.30;98.30;;;;;;4062289;29;20475;-83
2021/09/05 21:16:22;;;;;;;16.63;11.57;;;17.30;98.30;;;;;;4047001;29;20914;-82
2021/09/05 21:18:25;;;;;;;18.20;11.93;;;17.30;98.30;;;;;;4053587;29;20532;-83
2021/09/05 21:20:29;;;;;;;19.27;12.57;;;17.30;98.30;;;;;;4050833;29;20485;-82
2021/09/05 21:22:34;;;;;;;17.97;14.17;;;17.40;98.30;;;;;;4052248;29;20468;-83
2021/09/05 21:24:37;;;;;;;17.57;13.20;;;17.50;98.30;;;;;;4047525;29;20498;-82
2021/09/05 21:26:41;;;;;;;18.20;12.60;;;17.50;98.30;;;;;;4055586;29;20506;-83
2021/09/05 21:28:44;;;;;;;14.73;11.00;;;17.50;98.30;;;;;;4050370;29;20472;-83
2021/09/05 21:30:47;;;;;;;14.67;11.20;;;17.60;98.30;;;;;;4047307;29;20474;-83
2021/09/05 21:32:50;;;;;;;15.50;11.23;;;17.60;98.30;;;;;;4054046;29;21206;-83
2021/09/05 21:34:54;;;;;;;19.20;12.97;;;17.60;98.30;;;;;;4047082;29;20860;-83
2021/09/05 21:36:58;;;;;;;18.83;13.80;;;17.60;98.30;;;;;;4050514;29;20480;-83
2021/09/05 21:39:01;;;;;;;20.70;12.57;;;17.60;98.30;;;;;;4056491;29;20960;-83
2021/09/05 21:41:03;;;;;;;17.20;12.13;;;17.50;98.30;;;;;;4050385;29;20487;-83
2021/09/05 21:43:08;;;;;;;16.07;11.97;;;17.50;98.30;;;;;;4059819;29;20556;-83
2021/09/05 21:45:11;;;;;;;16.20;12.53;;;17.50;98.30;;;;;;4058843;29;20891;-83
2021/09/05 21:47:15;;;;;;;15.60;12.00;;;17.60;98.30;;;;;;4053800;29;20483;-83
2021/09/05 21:49:18;;;;;;;18.33;11.20;;;17.60;98.30;;;;;;4060617;29;20478;-83
2021/09/05 21:51:21;;;;;;;19.70;13.53;;;17.60;98.30;;;;;;4054041;29;20531;-83
2021/09/05 21:53:24;;;;;;;18.07;13.30;;;17.60;98.30;;;;;;4051147;29;20490;-83
2021/09/05 21:55:27;;;;;;;16.60;13.70;;;17.50;98.30;;;;;;4058191;29;20496;-83
2021/09/05 21:57:31;;;;;;;19.57;14.37;;;17.50;98.30;;;;;;4061734;29;20477;-84
2021/09/05 21:59:35;;;;;;;20.20;12.80;;;17.40;98.30;;;;;;4053781;29;20483;-84
2021/09/05 22:01:38;;;;;;;14.47;11.73;;;17.40;98.30;;;;;;4054831;29;20476;-83
2021/09/05 22:03:42;;;;;;;17.53;12.10;;;17.40;98.30;;;;;;4065104;29;20476;-83
2021/09/05 22:05:45;;;;;;;18.87;14.10;;;17.40;98.30;;;;;;4059364;29;20515;-84
2021/09/05 22:07:48;;;;;;;15.93;12.77;;;17.30;98.30;;;;;;4042268;29;20505;-84
2021/09/05 22:09:50;;;;;;;18.93;13.13;;;17.40;98.30;;;;;;4051188;29;21147;-84
2021/09/05 22:11:53;;;;;;;18.17;14.10;;;17.40;98.30;;;;;;4061145;29;21058;-82
2021/09/05 22:13:56;;;;;;;17.20;12.70;;;17.40;98.30;;;;;;4058004;29;20964;-83
2021/09/05 22:16:01;;;;;;;19.30;12.90;;;17.30;98.30;;;;;;4052862;29;20526;-82
2021/09/05 22:18:04;;;;;;;14.63;11.93;;;17.40;98.30;;;;;;4062035;29;20555;-83
2021/09/05 22:20:10;;;;;;;19.93;13.30;;;17.30;98.30;;;;;;4056960;29;20479;-83
2021/09/05 22:22:13;;;;;;;17.13;11.57;;;17.30;98.30;;;;;;4050848;29;20531;-83
2021/09/05 22:24:16;;;;;;;16.60;12.00;;;17.40;98.30;;;;;;4056266;29;20470;-83
2021/09/05 22:26:19;;;;;;;21.30;12.70;;;17.40;98.30;;;;;;4056292;29;20504;-84
2021/09/05 22:28:22;;;;;;;16.87;12.97;;;17.30;98.30;;;;;;4057177;29;20511;-83
2021/09/05 22:30:26;;;;;;;18.47;11.77;;;17.30;98.30;;;;;;4058125;29;20472;-83
2021/09/05 22:32:30;;;;;;;17.83;12.37;;;17.30;98.30;;;;;;4060784;29;20486;-83
2021/09/05 22:34:33;;;;;;;17.13;12.27;;;17.20;98.30;;;;;;4057693;29;20535;-83
2021/09/05 22:36:36;;;;;;;22.53;14.50;;;17.20;98.30;;;;;;4055657;29;20500;-83
2021/09/05 22:38:42;;;;;;;16.60;12.30;;;17.10;98.30;;;;;;4053097;29;20820;-82
2021/09/05 22:40:44;;;;;;;15.73;12.10;;;17.10;98.30;;;;;;4061952;29;20826;-83
2021/09/05 22:42:48;;;;;;;17.67;12.90;;;17.10;98.30;;;;;;4062337;29;21003;-82
2021/09/05 22:44:51;;;;;;;18.77;13.53;;;17.00;98.30;;;;;;4058328;29;20478;-82
2021/09/05 22:46:53;;;;;;;16.20;12.43;;;17.00;98.30;;;;;;4058009;29;20462;-82
2021/09/05 22:48:58;;;;;;;19.70;12.17;;;17.00;98.30;;;;;;4064311;29;20506;-82
2021/09/05 22:51:01;;;;;;;17.70;12.97;;;16.90;98.30;;;;;;4047898;29;20460;-82
2021/09/05 22:53:04;;;;;;;15.30;11.73;;;16.90;98.30;;;;;;4059114;29;20840;-83
